createdAt,value
2022-10-11T00:01:29.718Z,11.79
2022-10-11T00:04:32.969Z,11.76
2022-10-11T00:07:38.325Z,11.71
2022-10-11T00:10:41.751Z,11.69
2022-10-11T00:13:44.534Z,11.65
2022-10-11T00:16:47.556Z,11.64
2022-10-11T00:19:50.304Z,11.60
2022-10-11T00:22:53.561Z,11.53
2022-10-11T00:26:04.961Z,11.49
2022-10-11T00:29:08.077Z,11.46
2022-10-11T00:32:11.333Z,11.41
2022-10-11T00:35:15.309Z,11.40
2022-10-11T00:38:18.668Z,11.35
2022-10-11T00:41:22.064Z,11.30
2022-10-11T00:44:28.267Z,11.19
2022-10-11T00:47:31.122Z,11.09
2022-10-11T00:50:36.720Z,11.03
2022-10-11T00:53:41.318Z,10.99
2022-10-11T00:56:54.795Z,10.98
2022-10-11T00:59:58.870Z,10.95
2022-10-11T01:03:02.775Z,10.91
2022-10-11T01:06:06.534Z,10.92
2022-10-11T01:09:11.226Z,10.90
2022-10-11T01:12:18.755Z,10.80
2022-10-11T01:15:55.279Z,10.78
2022-10-11T01:19:20.123Z,10.77
2022-10-11T01:22:41.064Z,10.73
2022-10-11T01:26:09.129Z,10.70
2022-10-11T01:29:18.286Z,10.67
2022-10-11T01:32:40.963Z,10.69
2022-10-11T01:36:27.796Z,10.69
2022-10-11T01:39:43.670Z,10.61
2022-10-11T01:42:48.293Z,10.65
2022-10-11T01:45:53.547Z,10.60
2022-10-11T01:49:01.263Z,10.62
2022-10-11T01:52:06.950Z,10.64
2022-10-11T01:55:44.296Z,10.67
2022-10-11T01:59:11.959Z,10.70
2022-10-11T02:02:32.091Z,10.70
2022-10-11T02:05:43.424Z,10.75
2022-10-11T02:08:59.211Z,10.72
2022-10-11T02:12:10.081Z,10.73
2022-10-11T02:15:14.644Z,10.73
2022-10-11T02:18:22.221Z,10.72
2022-10-11T02:21:26.159Z,10.73
2022-10-11T02:24:34.749Z,10.69
2022-10-11T02:27:40.768Z,10.66
2022-10-11T02:30:47.405Z,10.63
2022-10-11T02:34:03.001Z,10.57
2022-10-11T02:37:12.168Z,10.52
2022-10-11T02:40:20.056Z,10.52
2022-10-11T02:43:45.764Z,10.51
2022-10-11T02:46:51.932Z,10.44
2022-10-11T02:50:14.825Z,10.45
2022-10-11T02:53:35.548Z,10.43
2022-10-11T02:56:38.626Z,10.42
2022-10-11T02:59:44.049Z,10.40
2022-10-11T03:02:48.582Z,10.42
2022-10-11T03:05:51.364Z,10.51
2022-10-11T03:08:54.283Z,10.55
2022-10-11T03:11:57.404Z,10.59
2022-10-11T03:15:00.893Z,10.64
2022-10-11T03:18:04.894Z,10.68
2022-10-11T03:21:07.806Z,10.71
2022-10-11T03:24:14.960Z,10.74
2022-10-11T03:27:20.460Z,10.79
2022-10-11T03:30:23.921Z,10.82
2022-10-11T03:33:26.799Z,10.81
2022-10-11T03:36:30.585Z,10.82
2022-10-11T03:39:33.414Z,10.78
2022-10-11T03:42:37.000Z,10.73
2022-10-11T03:45:42.431Z,10.70
2022-10-11T03:48:46.170Z,10.63
2022-10-11T03:51:49.137Z,10.61
2022-10-11T03:54:52.426Z,10.55
2022-10-11T03:57:55.014Z,10.59
2022-10-11T04:01:02.260Z,10.64
2022-10-11T04:04:12.148Z,10.66
2022-10-11T04:07:16.629Z,10.72
2022-10-11T04:10:21.395Z,10.76
2022-10-11T04:13:24.952Z,10.76
2022-10-11T04:16:28.874Z,10.69
2022-10-11T04:19:32.802Z,10.68
2022-10-11T04:22:37.206Z,10.71
2022-10-11T04:25:40.134Z,10.72
2022-10-11T04:28:47.364Z,10.76
2022-10-11T04:31:50.685Z,10.79
2022-10-11T04:34:53.897Z,10.80
2022-10-11T04:37:59.214Z,10.83
2022-10-11T04:41:10.519Z,10.90
2022-10-11T04:44:13.732Z,10.90
2022-10-11T04:47:16.847Z,10.92
2022-10-11T04:50:21.740Z,10.95
2022-10-11T04:53:25.680Z,10.97
2022-10-11T04:56:32.291Z,10.98
2022-10-11T04:59:36.767Z,11.01
2022-10-11T05:02:41.378Z,11.02
2022-10-11T05:05:45.362Z,11.08
2022-10-11T05:08:48.642Z,11.09
2022-10-11T05:11:52.812Z,11.09
2022-10-11T05:15:08.711Z,11.10
2022-10-11T05:18:18.741Z,11.16
2022-10-11T05:21:28.357Z,11.24
2022-10-11T05:24:35.223Z,11.27
2022-10-11T05:27:41.368Z,11.32
2022-10-11T05:30:44.901Z,11.39
2022-10-11T05:33:51.730Z,11.41
2022-10-11T05:36:56.827Z,11.46
2022-10-11T05:40:00.240Z,11.56
2022-10-11T05:43:04.272Z,11.62
2022-10-11T05:46:09.105Z,11.71
2022-10-11T05:49:13.032Z,11.73
2022-10-11T05:52:20.495Z,11.80
2022-10-11T05:55:23.810Z,11.96
2022-10-11T05:58:27.432Z,12.14
2022-10-11T06:01:30.576Z,12.18
2022-10-11T06:04:37.255Z,12.28
2022-10-11T06:07:40.409Z,12.33
2022-10-11T06:10:45.237Z,12.36
2022-10-11T06:13:48.681Z,12.32
2022-10-11T06:16:53.013Z,12.31
2022-10-11T06:20:00.589Z,12.30
2022-10-11T06:23:07.224Z,12.31
2022-10-11T06:26:16.162Z,12.27
2022-10-11T06:29:19.719Z,12.33
2022-10-11T06:32:23.291Z,12.46
2022-10-11T06:35:28.217Z,12.48
2022-10-11T06:38:35.021Z,12.77
2022-10-11T06:41:42.099Z,13.19
2022-10-11T06:44:44.955Z,13.07
2022-10-11T06:47:50.247Z,13.80
2022-10-11T06:51:00.057Z,14.41
2022-10-11T06:54:05.421Z,14.05
2022-10-11T06:57:08.780Z,13.92
2022-10-11T07:00:14.435Z,14.81
2022-10-11T07:03:22.263Z,15.35
2022-10-11T07:06:28.062Z,15.52
2022-10-11T07:09:34.645Z,15.98
2022-10-11T07:12:38.409Z,15.02
2022-10-11T07:15:41.399Z,14.73
2022-10-11T07:18:48.713Z,14.32
2022-10-11T07:21:52.276Z,14.56
2022-10-11T07:24:55.560Z,15.48
2022-10-11T07:27:58.949Z,16.79
2022-10-11T07:31:09.377Z,17.42
2022-10-11T07:34:14.422Z,18.17
2022-10-11T07:37:17.898Z,17.77
2022-10-11T07:40:22.783Z,18.12
2022-10-11T07:43:26.369Z,18.11
2022-10-11T07:46:30.394Z,18.08
2022-10-11T07:49:33.456Z,17.46
2022-10-11T07:52:36.655Z,17.47
2022-10-11T07:55:43.059Z,18.46
2022-10-11T07:58:51.698Z,18.45
2022-10-11T08:01:59.303Z,17.09
2022-10-11T08:05:11.192Z,18.09
2022-10-11T08:08:15.047Z,18.13
2022-10-11T08:11:27.023Z,17.79
2022-10-11T08:18:34.500Z,17.49
2022-10-11T08:22:43.438Z,18.68
2022-10-11T08:25:49.536Z,19.26
2022-10-11T08:28:54.817Z,18.79
2022-10-11T08:32:01.538Z,17.86
2022-10-11T08:35:06.405Z,18.29
2022-10-11T08:38:10.498Z,18.65
2022-10-11T08:41:20.902Z,19.54
2022-10-11T08:45:09.915Z,19.57
2022-10-11T08:48:24.275Z,20.15
2022-10-11T08:51:34.451Z,20.15
2022-10-11T08:54:51.157Z,19.54
2022-10-11T08:57:56.024Z,20.10
2022-10-11T09:01:00.805Z,20.05
2022-10-11T09:04:06.421Z,20.67
2022-10-11T09:07:31.463Z,20.07
2022-10-11T09:10:44.550Z,19.19
2022-10-11T09:14:13.263Z,19.67
2022-10-11T09:17:39.751Z,19.52
2022-10-11T09:20:53.268Z,19.46
2022-10-11T09:24:21.325Z,19.49
2022-10-11T09:28:01.683Z,19.26
2022-10-11T09:31:11.072Z,19.11
2022-10-11T09:34:15.737Z,19.91
2022-10-11T09:37:33.062Z,19.86
2022-10-11T09:41:06.093Z,19.75
2022-10-11T09:44:48.216Z,20.44
2022-10-11T09:47:59.245Z,20.65
2022-10-11T09:51:12.397Z,21.39
2022-10-11T09:54:18.407Z,20.93
2022-10-11T09:57:31.187Z,21.07
2022-10-11T10:00:35.107Z,21.83
2022-10-11T10:03:44.566Z,20.64
2022-10-11T10:06:48.449Z,20.80
2022-10-11T10:09:54.328Z,20.65
2022-10-11T10:13:06.404Z,20.92
2022-10-11T10:16:28.505Z,20.48
2022-10-11T10:19:48.600Z,20.38
2022-10-11T10:22:59.171Z,20.44
2022-10-11T10:26:16.271Z,20.90
2022-10-11T10:29:20.311Z,21.02
2022-10-11T10:32:30.988Z,20.82
2022-10-11T10:35:47.593Z,20.58
2022-10-11T10:39:21.180Z,20.37
2022-10-11T10:42:25.644Z,20.23
2022-10-11T10:45:39.383Z,20.20
2022-10-11T10:52:39.008Z,20.64
2022-10-11T10:55:46.045Z,20.23
2022-10-11T10:59:19.171Z,20.25
2022-10-11T11:02:41.522Z,20.28
2022-10-11T11:06:07.823Z,20.63
2022-10-11T11:09:37.341Z,20.63
2022-10-11T11:13:05.131Z,21.18
2022-10-11T11:16:30.953Z,21.29
2022-10-11T11:19:59.662Z,20.81
2022-10-11T11:23:23.810Z,21.25
2022-10-11T11:26:49.434Z,20.61
2022-10-11T11:30:32.221Z,20.34
2022-10-11T11:33:59.485Z,20.14
2022-10-11T11:37:09.953Z,20.29
2022-10-11T11:40:12.684Z,20.06
2022-10-11T11:43:23.221Z,20.24
2022-10-11T11:46:36.175Z,20.06
2022-10-11T11:50:04.536Z,20.34
2022-10-11T11:53:26.233Z,20.36
2022-10-11T11:56:45.392Z,20.44
2022-10-11T12:00:04.112Z,20.50
2022-10-11T12:03:24.164Z,20.56
2022-10-11T12:06:47.878Z,20.35
2022-10-11T12:10:36.576Z,20.01
2022-10-11T12:13:41.002Z,19.88
2022-10-11T12:17:21.913Z,19.87
2022-10-11T12:20:39.211Z,19.90
2022-10-11T12:23:57.330Z,20.04
2022-10-11T12:27:38.608Z,19.98
2022-10-11T12:30:49.224Z,19.87
2022-10-11T12:34:16.496Z,19.97
2022-10-11T12:37:25.135Z,19.94
2022-10-11T12:40:42.223Z,19.97
2022-10-11T12:43:50.331Z,19.84
2022-10-11T12:46:53.860Z,19.66
2022-10-11T12:50:23.375Z,19.58
2022-10-11T12:54:14.404Z,19.58
2022-10-11T12:57:45.957Z,19.47
2022-10-11T13:00:56.561Z,19.67
2022-10-11T13:04:12.646Z,19.52
2022-10-11T13:07:24.478Z,19.46
2022-10-11T13:10:44.914Z,19.56
2022-10-11T13:14:30.198Z,19.52
2022-10-11T13:17:39.179Z,19.50
2022-10-11T13:20:45.134Z,19.38
2022-10-11T13:23:51.355Z,19.23
2022-10-11T13:26:58.364Z,19.07
2022-10-11T13:30:12.261Z,19.03
2022-10-11T13:33:24.296Z,18.98
2022-10-11T13:36:33.805Z,18.99
2022-10-11T13:39:39.247Z,18.96
2022-10-11T13:42:51.084Z,18.91
2022-10-11T13:45:58.535Z,18.85
2022-10-11T13:49:07.255Z,18.83
2022-10-11T13:52:22.273Z,18.82
2022-10-11T13:55:39.315Z,18.86
2022-10-11T13:58:48.708Z,18.88
2022-10-11T14:01:59.003Z,18.90
2022-10-11T14:05:05.505Z,18.88
2022-10-11T14:08:49.174Z,18.90
2022-10-11T14:11:57.237Z,18.92
2022-10-11T14:15:34.447Z,18.93
2022-10-11T14:18:38.134Z,18.87
2022-10-11T14:21:46.558Z,18.87
2022-10-11T14:25:04.214Z,18.87
2022-10-11T14:28:14.362Z,18.87
2022-10-11T14:31:25.297Z,18.89
2022-10-11T14:34:32.095Z,18.96
2022-10-11T14:37:36.585Z,18.92
2022-10-11T14:40:52.169Z,18.89
2022-10-11T14:43:57.297Z,18.88
2022-10-11T14:47:06.520Z,18.80
2022-10-11T14:50:23.441Z,18.72
2022-10-11T14:53:27.115Z,18.67
2022-10-11T14:56:35.003Z,18.61
2022-10-11T14:59:39.837Z,18.56
2022-10-11T15:02:45.590Z,18.48
2022-10-11T15:05:53.524Z,18.41
2022-10-11T15:08:58.736Z,18.32
2022-10-11T15:12:01.769Z,18.29
2022-10-11T15:15:04.919Z,18.24
2022-10-11T15:18:17.205Z,18.15
2022-10-11T15:21:25.443Z,18.14
2022-10-11T15:24:41.328Z,18.16
2022-10-11T15:27:46.000Z,18.05
2022-10-11T15:30:58.066Z,17.99
2022-10-11T15:34:08.561Z,17.91
2022-10-11T15:37:13.212Z,17.83
2022-10-11T15:40:28.389Z,17.78
2022-10-11T15:43:39.299Z,17.70
2022-10-11T15:46:52.284Z,17.64
2022-10-11T15:49:56.250Z,17.57
2022-10-11T15:53:33.524Z,17.53
2022-10-11T15:56:38.388Z,17.46
2022-10-11T15:59:48.517Z,17.38
2022-10-11T16:02:59.289Z,17.33
2022-10-11T16:06:14.291Z,17.28
2022-10-11T16:09:17.615Z,17.21
2022-10-11T16:12:26.287Z,17.14
2022-10-11T16:15:34.196Z,17.10
2022-10-11T16:18:38.495Z,17.05
2022-10-11T16:21:42.796Z,17.03
2022-10-11T16:24:55.314Z,16.98
2022-10-11T16:28:06.464Z,16.97
2022-10-11T16:31:18.360Z,16.90
2022-10-11T16:34:24.757Z,16.82
2022-10-11T16:37:36.417Z,16.68
2022-10-11T16:40:50.302Z,16.53
2022-10-11T16:44:02.576Z,16.37
2022-10-11T16:47:20.569Z,16.26
2022-10-11T16:50:27.491Z,16.14
2022-10-11T16:53:44.217Z,16.03
2022-10-11T16:56:52.283Z,15.91
2022-10-11T17:00:14.282Z,15.76
2022-10-11T17:03:21.361Z,15.57
2022-10-11T17:06:27.353Z,15.44
2022-10-11T17:09:41.548Z,15.37
2022-10-11T17:12:50.175Z,15.34
2022-10-11T17:15:58.810Z,15.26
2022-10-11T17:19:03.181Z,15.20
2022-10-11T17:22:08.260Z,15.17
2022-10-11T17:25:12.844Z,15.15
2022-10-11T17:28:19.619Z,15.21
2022-10-11T17:31:40.294Z,15.25
2022-10-11T17:34:55.329Z,15.31
2022-10-11T17:38:05.926Z,15.31
2022-10-11T17:41:17.593Z,15.31
2022-10-11T17:44:24.728Z,15.21
2022-10-11T17:47:37.333Z,15.10
2022-10-11T17:50:46.983Z,15.01
2022-10-11T17:53:54.749Z,14.91
2022-10-11T17:56:59.976Z,14.81
2022-10-11T18:00:11.510Z,14.71
2022-10-11T18:03:45.608Z,14.67
2022-10-11T18:06:56.551Z,14.57
2022-10-11T18:10:04.511Z,14.48
2022-10-11T18:13:10.969Z,14.43
2022-10-11T18:16:33.210Z,14.42
2022-10-11T18:19:45.321Z,14.36
2022-10-11T18:23:04.563Z,14.23
2022-10-11T18:26:26.711Z,14.11
2022-10-11T18:29:38.632Z,14.03
2022-10-11T18:32:41.908Z,14.01
2022-10-11T18:35:51.584Z,13.88
2022-10-11T18:39:09.231Z,13.82
2022-10-11T18:42:23.224Z,13.75
2022-10-11T18:45:32.601Z,13.78
2022-10-11T18:48:42.404Z,13.79
2022-10-11T18:51:50.367Z,13.72
2022-10-11T18:55:13.455Z,13.67
2022-10-11T18:58:31.008Z,13.53
2022-10-11T19:01:59.252Z,13.50
2022-10-11T19:05:09.262Z,13.48
2022-10-11T19:08:33.661Z,13.52
2022-10-11T19:11:42.603Z,13.49
2022-10-11T19:14:57.647Z,13.36
2022-10-11T19:18:01.886Z,13.31
2022-10-11T19:21:10.367Z,13.20
2022-10-11T19:24:30.291Z,13.14
2022-10-11T19:27:44.392Z,13.09
2022-10-11T19:30:49.239Z,13.01
2022-10-11T19:34:01.288Z,12.95
2022-10-11T19:37:09.528Z,12.75
2022-10-11T19:40:21.278Z,12.67
2022-10-11T19:43:44.764Z,12.69
2022-10-11T19:46:53.263Z,12.71
2022-10-11T19:49:56.352Z,12.75
2022-10-11T19:53:07.316Z,12.72
2022-10-11T19:56:19.438Z,12.64
2022-10-11T19:59:30.298Z,12.56
2022-10-11T20:02:37.840Z,12.43
2022-10-11T20:05:42.314Z,12.42
2022-10-11T20:09:27.537Z,12.42
2022-10-11T20:12:29.360Z,12.40
2022-10-11T20:15:37.394Z,12.36
2022-10-11T20:18:42.776Z,12.32
2022-10-11T20:21:45.595Z,12.28
2022-10-11T20:24:55.311Z,12.28
2022-10-11T20:28:00.265Z,12.30
2022-10-11T20:31:11.633Z,12.32
2022-10-11T20:34:15.382Z,12.36
2022-10-11T20:37:19.288Z,12.46
2022-10-11T20:40:22.118Z,12.53
2022-10-11T20:43:28.686Z,12.58
2022-10-11T20:46:33.916Z,12.62
2022-10-11T20:49:37.636Z,12.60
2022-10-11T20:52:54.526Z,12.63
2022-10-11T21:00:34.357Z,12.64
2022-10-11T21:03:40.180Z,12.69
2022-10-11T21:06:43.038Z,12.72
2022-10-11T21:10:08.505Z,12.73
2022-10-11T21:13:14.278Z,12.73
2022-10-11T21:16:30.877Z,12.77
2022-10-11T21:19:46.282Z,12.77
2022-10-11T21:22:49.353Z,12.77
2022-10-11T21:26:02.942Z,12.72
2022-10-11T21:29:09.237Z,12.61
2022-10-11T21:32:15.494Z,12.49
2022-10-11T21:35:20.150Z,12.40
2022-10-11T21:38:28.302Z,12.32
2022-10-11T21:41:47.831Z,12.26
2022-10-11T21:45:05.676Z,12.22
2022-10-11T21:48:22.280Z,12.12
2022-10-11T21:51:32.414Z,12.04
2022-10-11T21:54:35.478Z,11.92
2022-10-11T21:57:38.448Z,11.86
2022-10-11T22:00:41.524Z,11.81
2022-10-11T22:04:43.760Z,11.75
2022-10-11T22:07:58.443Z,11.67
2022-10-11T22:11:18.924Z,11.63
2022-10-11T22:14:29.926Z,11.57
2022-10-11T22:17:33.088Z,11.55
2022-10-11T22:20:40.729Z,11.57
2022-10-11T22:23:46.259Z,11.54
2022-10-11T22:26:54.547Z,11.53
2022-10-11T22:29:57.499Z,11.42
2022-10-11T22:33:36.408Z,11.42
2022-10-11T22:37:11.151Z,11.43
2022-10-11T22:40:57.954Z,11.48
2022-10-11T22:44:01.458Z,11.42
2022-10-11T22:47:04.492Z,11.39
2022-10-11T22:54:26.594Z,11.29
2022-10-11T22:57:36.591Z,11.22
2022-10-11T23:00:42.226Z,11.17
2022-10-11T23:03:50.706Z,11.22
2022-10-11T23:06:55.347Z,11.25
2022-10-11T23:09:59.592Z,11.18
2022-10-11T23:13:06.181Z,11.10
2022-10-11T23:16:13.441Z,11.13
2022-10-11T23:19:16.738Z,11.18
2022-10-11T23:22:21.273Z,11.20
2022-10-11T23:25:24.215Z,11.16
2022-10-11T23:28:29.595Z,11.08
2022-10-11T23:31:32.151Z,11.04
2022-10-11T23:34:35.220Z,10.99
2022-10-11T23:37:39.493Z,10.94
2022-10-11T23:40:44.264Z,10.93
2022-10-11T23:43:46.883Z,10.94
2022-10-11T23:46:49.917Z,10.91
2022-10-11T23:49:53.895Z,10.88
2022-10-11T23:52:57.253Z,10.82
2022-10-11T23:56:00.481Z,10.82
2022-10-11T23:59:04.448Z,10.82
